Terminal Aerodrome Forecast
Issued by NWS

Current Version | Previous Version | Text Only | Print | Product List | Glossary Off
Versions: 1 2 3 4 5 6 7 8 9 10 11 12 13 14 15 16 17 18 19 20 21 22 23 24 25

000
FTUS41 KRLX 221120
TAFCKB
TAF
KCKB 221120Z 2212/2312 09003KT P6SM BKN080
     FM222000 06007KT P6SM -SHRA OVC060
     FM222300 04006KT P6SM BKN050
     FM230400 03005KT 6SM -SHRA OVC035
     FM230900 03005KT 3SM -SHRA BR OVC012=

USA.gov is the U.S. government's official web portal to all federal, state and local government web resources and services.